createdAt,value
2017-01-30T00:01:00.765Z,1016.44
2017-01-30T00:02:10.279Z,1016.43
2017-01-30T00:03:20.977Z,1016.39
2017-01-30T00:04:31.136Z,1016.39
2017-01-30T00:05:41.447Z,1016.4
2017-01-30T00:06:52.186Z,1016.37
2017-01-30T00:08:02.475Z,1016.4
2017-01-30T00:09:12.798Z,1016.42
2017-01-30T00:10:23.746Z,1016.4
2017-01-30T00:11:34.052Z,1016.41
2017-01-30T00:12:44.343Z,1016.38
2017-01-30T00:13:54.252Z,1016.35
2017-01-30T00:15:04.151Z,1016.33
2017-01-30T00:16:13.948Z,1016.37
2017-01-30T00:17:23.453Z,1016.38
2017-01-30T00:18:33.769Z,1016.37
2017-01-30T00:19:44.074Z,1016.32
2017-01-30T00:20:54.416Z,1016.3
2017-01-30T00:22:05.414Z,1016.29
2017-01-30T00:23:16.101Z,1016.28
2017-01-30T00:24:25.615Z,1016.32
2017-01-30T00:25:35.518Z,1016.28
2017-01-30T00:26:45.800Z,1016.29
2017-01-30T00:27:56.388Z,1016.29
2017-01-30T00:29:06.709Z,1016.25
2017-01-30T00:30:16.991Z,1016.28
2017-01-30T00:31:27.714Z,1016.28
2017-01-30T00:32:38.006Z,1016.22
2017-01-30T00:33:48.169Z,1016.22
2017-01-30T00:34:58.466Z,1016.23
2017-01-30T00:36:08.361Z,1016.21
2017-01-30T00:37:18.665Z,1016.21
2017-01-30T00:38:28.173Z,1016.23
2017-01-30T00:39:38.708Z,1016.27
2017-01-30T00:40:48.997Z,1016.28
2017-01-30T00:41:58.897Z,1016.3
2017-01-30T00:43:08.400Z,1016.32
2017-01-30T00:44:18.314Z,1016.33
2017-01-30T00:45:28.463Z,1016.31
2017-01-30T00:46:38.378Z,1016.28
2017-01-30T00:47:48.280Z,1016.26
2017-01-30T00:48:58.771Z,1016.26
2017-01-30T00:50:08.310Z,1016.29
2017-01-30T00:51:18.902Z,1016.33
2017-01-30T00:52:29.201Z,1016.3
2017-01-30T00:53:39.494Z,1016.34
2017-01-30T00:54:50.191Z,1016.34
2017-01-30T00:56:00.490Z,1016.35
2017-01-30T00:57:11.091Z,1016.36
2017-01-30T00:58:21.370Z,1016.39
2017-01-30T00:59:32.058Z,1016.36
2017-01-30T01:00:42.349Z,1016.34
2017-01-30T01:01:53.055Z,1016.37
2017-01-30T01:03:04.046Z,1016.32
2017-01-30T01:04:13.930Z,1016.28
2017-01-30T01:05:23.436Z,1016.23
2017-01-30T01:06:33.826Z,1016.2
2017-01-30T01:07:44.118Z,1016.18
2017-01-30T01:08:54.324Z,1016.15
2017-01-30T01:10:04.596Z,1016.17
2017-01-30T01:11:14.107Z,1016.13
2017-01-30T01:12:24.368Z,1016.09
2017-01-30T01:13:34.233Z,1016.08
2017-01-30T01:14:44.786Z,1016.06
2017-01-30T01:15:54.646Z,1016.05
2017-01-30T01:17:04.121Z,1016.07
2017-01-30T01:18:14.425Z,1016.1
2017-01-30T01:19:24.707Z,1016.08
2017-01-30T01:20:34.508Z,1016.1
2017-01-30T01:21:44.009Z,1016.12
2017-01-30T01:22:53.910Z,1016.07
2017-01-30T01:24:03.817Z,1016.09
2017-01-30T01:25:14.114Z,1016.03
2017-01-30T01:26:24.260Z,1016.03
2017-01-30T01:27:34.164Z,1016.04
2017-01-30T01:28:44.860Z,1016.06
2017-01-30T01:29:55.151Z,1016.04
2017-01-30T01:31:05.839Z,1016.01
2017-01-30T01:32:15.987Z,1016
2017-01-30T01:33:25.886Z,1016
2017-01-30T01:34:36.572Z,1015.99
2017-01-30T01:35:46.473Z,1016
2017-01-30T01:36:55.993Z,1015.93
2017-01-30T01:38:06.552Z,1015.89
2017-01-30T01:39:16.851Z,1015.86
2017-01-30T01:40:27.153Z,1015.8
2017-01-30T01:41:37.091Z,1015.81
2017-01-30T01:42:47.376Z,1015.8
2017-01-30T01:43:57.919Z,1015.77
2017-01-30T01:45:07.437Z,1015.76
2017-01-30T01:46:18.122Z,1015.74
2017-01-30T01:47:27.614Z,1015.69
2017-01-30T01:48:37.903Z,1015.71
2017-01-30T01:49:48.439Z,1015.73
2017-01-30T01:50:57.951Z,1015.7
2017-01-30T01:52:08.637Z,1015.68
2017-01-30T01:53:18.919Z,1015.68
2017-01-30T01:54:29.206Z,1015.64
2017-01-30T01:55:39.831Z,1015.61
2017-01-30T01:56:49.715Z,1015.59
2017-01-30T01:57:59.667Z,1015.61
2017-01-30T01:59:09.971Z,1015.56
2017-01-30T02:00:20.669Z,1015.58
2017-01-30T02:01:31.261Z,1015.52
2017-01-30T02:02:41.554Z,1015.51
2017-01-30T02:03:51.856Z,1015.52
2017-01-30T02:05:01.359Z,1015.5
2017-01-30T02:06:12.116Z,1015.48
2017-01-30T02:07:22.659Z,1015.5
2017-01-30T02:08:31.789Z,1015.49
2017-01-30T02:09:42.072Z,1015.46
2017-01-30T02:10:52.772Z,1015.48
2017-01-30T02:12:02.672Z,1015.43
2017-01-30T02:13:12.425Z,1015.44
2017-01-30T02:14:21.553Z,1015.43
2017-01-30T02:15:31.081Z,1015.48
2017-01-30T02:16:40.999Z,1015.48
2017-01-30T02:17:50.518Z,1015.45
2017-01-30T02:19:00.266Z,1015.45
2017-01-30T02:20:09.433Z,1015.45
2017-01-30T02:21:20.115Z,1015.44
2017-01-30T02:22:29.616Z,1015.4
2017-01-30T02:23:39.521Z,1015.4
2017-01-30T02:24:50.064Z,1015.39
2017-01-30T02:26:00.383Z,1015.42
2017-01-30T02:27:10.289Z,1015.4
2017-01-30T02:28:20.202Z,1015.36
2017-01-30T02:29:29.321Z,1015.33
2017-01-30T02:30:39.091Z,1015.34
2017-01-30T02:31:49.794Z,1015.29
2017-01-30T02:32:59.708Z,1015.32
2017-01-30T02:34:10.002Z,1015.29
2017-01-30T02:35:20.295Z,1015.27
2017-01-30T02:36:30.066Z,1015.24
2017-01-30T02:37:40.763Z,1015.29
2017-01-30T02:38:50.663Z,1015.21
2017-01-30T02:40:00.564Z,1015.21
2017-01-30T02:41:11.250Z,1015.2
2017-01-30T02:42:21.845Z,1015.2
2017-01-30T02:43:32.135Z,1015.23
2017-01-30T02:44:42.029Z,1015.29
2017-01-30T02:45:51.535Z,1015.27
2017-01-30T02:47:01.827Z,1015.25
2017-01-30T02:48:11.981Z,1015.29
2017-01-30T02:49:22.266Z,1015.23
2017-01-30T02:50:32.572Z,1015.26
2017-01-30T02:51:42.069Z,1015.26
2017-01-30T02:52:52.375Z,1015.26
2017-01-30T02:54:02.912Z,1015.21
2017-01-30T02:55:12.828Z,1015.17
2017-01-30T02:56:22.739Z,1015.2
2017-01-30T02:57:33.054Z,1015.13
2017-01-30T02:58:42.163Z,1015.16
2017-01-30T02:59:52.318Z,1015.19
2017-01-30T03:01:02.616Z,1015.16
2017-01-30T03:02:12.902Z,1015.12
2017-01-30T03:03:23.578Z,1015.1
2017-01-30T03:04:33.486Z,1015.11
2017-01-30T03:05:44.425Z,1015.09
2017-01-30T03:06:54.710Z,1015.09
2017-01-30T03:08:05.112Z,1015.09
2017-01-30T03:09:15.013Z,1015.02
2017-01-30T03:10:25.699Z,1015.06
2017-01-30T03:11:36.291Z,1015.05
2017-01-30T03:12:46.587Z,1015.05
2017-01-30T03:13:56.489Z,1014.98
2017-01-30T03:15:06.391Z,1014.98
2017-01-30T03:16:16.287Z,1014.99
2017-01-30T03:17:26.829Z,1014.98
2017-01-30T03:18:36.734Z,1014.95
2017-01-30T03:19:46.638Z,1014.96
2017-01-30T03:20:56.983Z,1014.97
2017-01-30T03:22:07.280Z,1014.96
2017-01-30T03:23:17.865Z,1014.89
2017-01-30T03:24:27.772Z,1014.93
2017-01-30T03:25:38.098Z,1014.91
2017-01-30T03:26:47.604Z,1014.93
2017-01-30T03:27:57.881Z,1014.94
2017-01-30T03:29:08.086Z,1014.91
2017-01-30T03:30:18.007Z,1014.92
2017-01-30T03:31:28.294Z,1014.95
2017-01-30T03:32:38.203Z,1014.9
2017-01-30T03:33:48.102Z,1014.87
2017-01-30T03:34:58.640Z,1014.88
2017-01-30T03:36:08.547Z,1014.9
2017-01-30T03:37:19.235Z,1014.83
2017-01-30T03:38:29.530Z,1014.82
2017-01-30T03:39:39.044Z,1014.79
2017-01-30T03:40:49.184Z,1014.82
2017-01-30T03:41:59.473Z,1014.85
2017-01-30T03:43:09.768Z,1014.86
2017-01-30T03:44:20.079Z,1014.8
2017-01-30T03:45:30.379Z,1014.82
2017-01-30T03:46:40.581Z,1014.77
2017-01-30T03:47:50.877Z,1014.75
2017-01-30T03:49:01.666Z,1014.77
2017-01-30T03:50:12.347Z,1014.84
2017-01-30T03:51:22.641Z,1014.86
2017-01-30T03:52:33.229Z,1014.84
2017-01-30T03:53:43.911Z,1014.84
2017-01-30T03:54:53.810Z,1014.91
2017-01-30T03:56:03.710Z,1014.83
2017-01-30T03:57:14.412Z,1014.81
2017-01-30T03:58:24.215Z,1014.85
2017-01-30T03:59:34.100Z,1014.8
2017-01-30T04:00:43.637Z,1014.78
2017-01-30T04:01:53.923Z,1014.71
2017-01-30T04:03:04.231Z,1014.75
2017-01-30T04:04:14.767Z,1014.83
2017-01-30T04:05:24.290Z,1014.81
2017-01-30T04:06:34.625Z,1014.86
2017-01-30T04:07:44.906Z,1014.93
2017-01-30T04:08:54.795Z,1014.86
2017-01-30T04:10:04.940Z,1014.75
2017-01-30T04:11:14.442Z,1014.79
2017-01-30T04:12:24.727Z,1014.82
2017-01-30T04:13:34.244Z,1014.9
2017-01-30T04:14:44.545Z,1014.85
2017-01-30T04:15:55.083Z,1014.81
2017-01-30T04:17:05.381Z,1014.82
2017-01-30T04:18:15.708Z,1014.8
2017-01-30T04:19:25.613Z,1014.73
2017-01-30T04:20:35.905Z,1014.71
2017-01-30T04:21:46.473Z,1014.72
2017-01-30T04:22:56.765Z,1014.63
2017-01-30T04:24:06.268Z,1014.69
2017-01-30T04:25:15.756Z,1014.64
2017-01-30T04:26:26.050Z,1014.67
2017-01-30T04:27:36.244Z,1014.68
2017-01-30T04:28:45.747Z,1014.67
2017-01-30T04:29:55.252Z,1014.63
2017-01-30T04:31:04.759Z,1014.7
2017-01-30T04:32:15.074Z,1014.67
2017-01-30T04:33:25.628Z,1014.65
2017-01-30T04:34:36.332Z,1014.6
2017-01-30T04:35:46.227Z,1014.64
2017-01-30T04:36:56.917Z,1014.6
2017-01-30T04:38:07.212Z,1014.55
2017-01-30T04:39:17.016Z,1014.6
2017-01-30T04:40:27.308Z,1014.54
2017-01-30T04:41:37.598Z,1014.52
2017-01-30T04:42:47.889Z,1014.52
2017-01-30T04:43:58.571Z,1014.49
2017-01-30T04:45:08.317Z,1014.44
2017-01-30T04:46:18.213Z,1014.46
2017-01-30T04:47:28.495Z,1014.46
2017-01-30T04:48:38.399Z,1014.46
2017-01-30T04:49:48.675Z,1014.5
2017-01-30T04:50:59.606Z,1014.49
2017-01-30T04:52:09.505Z,1014.45
2017-01-30T04:53:20.192Z,1014.45
2017-01-30T04:54:29.702Z,1014.42
2017-01-30T04:55:39.989Z,1014.48
2017-01-30T04:56:50.140Z,1014.45
2017-01-30T04:58:00.030Z,1014.45
2017-01-30T04:59:10.344Z,1014.44
2017-01-30T05:00:20.244Z,1014.47
2017-01-30T05:01:29.347Z,1014.42
2017-01-30T05:02:39.496Z,1014.4
2017-01-30T05:03:48.999Z,1014.39
2017-01-30T05:04:58.926Z,1014.41
2017-01-30T05:06:09.216Z,1014.38
2017-01-30T05:07:19.895Z,1014.38
2017-01-30T05:08:29.260Z,1014.37
2017-01-30T05:09:39.158Z,1014.42
2017-01-30T05:10:49.848Z,1014.41
2017-01-30T05:12:00.137Z,1014.4
2017-01-30T05:13:10.435Z,1014.39
2017-01-30T05:14:20.195Z,1014.34
2017-01-30T05:15:30.101Z,1014.32
2017-01-30T05:16:40.384Z,1014.3
2017-01-30T05:17:50.299Z,1014.26
2017-01-30T05:19:00.195Z,1014.28
2017-01-30T05:20:09.953Z,1014.29
2017-01-30T05:21:20.253Z,1014.29
2017-01-30T05:22:29.755Z,1014.28
2017-01-30T05:23:39.248Z,1014.29
2017-01-30T05:24:49.160Z,1014.23
2017-01-30T05:25:59.747Z,1014.21
2017-01-30T05:27:10.052Z,1014.26
2017-01-30T05:28:19.941Z,1014.24
2017-01-30T05:29:30.224Z,1014.24
2017-01-30T05:30:40.125Z,1014.23
2017-01-30T05:31:50.722Z,1014.22
2017-01-30T05:33:00.619Z,1014.2
2017-01-30T05:34:11.296Z,1014.18
2017-01-30T05:35:21.190Z,1014.16
2017-01-30T05:36:30.709Z,1014.18
2017-01-30T05:37:41.315Z,1014.13
2017-01-30T05:38:51.626Z,1014.16
2017-01-30T05:40:01.126Z,1014.17
2017-01-30T05:41:11.033Z,1014.16
2017-01-30T05:42:21.342Z,1014.14
2017-01-30T05:43:32.317Z,1014.12
2017-01-30T05:44:43.253Z,1014.16
2017-01-30T05:45:53.141Z,1014.14
2017-01-30T05:47:03.042Z,1014.14
2017-01-30T05:48:12.930Z,1014.06
2017-01-30T05:49:23.482Z,1014.07
2017-01-30T05:50:34.173Z,1014.08
2017-01-30T05:51:44.869Z,1014.09
2017-01-30T05:52:55.584Z,1014.11
2017-01-30T05:54:05.471Z,1014.09
2017-01-30T05:55:15.232Z,1014.04
2017-01-30T05:56:25.139Z,1014.03
2017-01-30T05:57:35.430Z,1014
2017-01-30T05:58:45.824Z,1013.93
2017-01-30T05:59:56.112Z,1013.94
2017-01-30T06:01:06.263Z,1013.93
2017-01-30T06:02:16.158Z,1013.97
2017-01-30T06:03:26.051Z,1013.93
2017-01-30T06:04:36.348Z,1013.91
2017-01-30T06:05:45.868Z,1013.89
2017-01-30T06:06:56.017Z,1013.9
2017-01-30T06:08:06.329Z,1013.86
2017-01-30T06:09:15.058Z,1013.86
2017-01-30T06:10:24.970Z,1013.87
2017-01-30T06:11:34.865Z,1013.82
2017-01-30T06:12:45.460Z,1013.8
2017-01-30T06:13:55.738Z,1013.8
2017-01-30T06:15:05.632Z,1013.82
2017-01-30T06:16:15.135Z,1013.78
2017-01-30T06:17:25.418Z,1013.74
2017-01-30T06:18:36.016Z,1013.75
2017-01-30T06:19:46.309Z,1013.74
2017-01-30T06:20:56.596Z,1013.7
2017-01-30T06:22:06.098Z,1013.71
2017-01-30T06:23:16.003Z,1013.68
2017-01-30T06:24:26.198Z,1013.71
2017-01-30T06:25:36.506Z,1013.68
2017-01-30T06:26:46.417Z,1013.63
2017-01-30T06:27:56.313Z,1013.66
2017-01-30T06:29:06.998Z,1013.63
2017-01-30T06:30:17.150Z,1013.6
2017-01-30T06:31:26.664Z,1013.57
2017-01-30T06:32:36.564Z,1013.56
2017-01-30T06:33:46.469Z,1013.53
2017-01-30T06:34:56.766Z,1013.52
2017-01-30T06:36:07.757Z,1013.52
2017-01-30T06:37:17.648Z,1013.47
2017-01-30T06:38:28.351Z,1013.45
2017-01-30T06:39:38.263Z,1013.41
2017-01-30T06:40:48.558Z,1013.47
2017-01-30T06:41:58.755Z,1013.47
2017-01-30T06:43:09.050Z,1013.47
2017-01-30T06:44:18.556Z,1013.46
2017-01-30T06:45:28.469Z,1013.44
2017-01-30T06:46:39.159Z,1013.5
2017-01-30T06:47:49.706Z,1013.49
2017-01-30T06:49:00.001Z,1013.45
2017-01-30T06:50:10.285Z,1013.4
2017-01-30T06:51:20.176Z,1013.39
2017-01-30T06:52:30.077Z,1013.4
2017-01-30T06:53:40.870Z,1013.41
2017-01-30T06:54:50.766Z,1013.42
2017-01-30T06:56:00.662Z,1013.44
2017-01-30T06:57:09.767Z,1013.48
2017-01-30T06:58:19.679Z,1013.49
2017-01-30T06:59:30.664Z,1013.47
2017-01-30T07:00:40.567Z,1013.44
2017-01-30T07:01:50.864Z,1013.41
2017-01-30T07:03:00.762Z,1013.38
2017-01-30T07:04:10.658Z,1013.39
2017-01-30T07:05:21.591Z,1013.36
2017-01-30T07:06:31.883Z,1013.42
2017-01-30T07:07:41.789Z,1013.46
2017-01-30T07:08:52.091Z,1013.42
2017-01-30T07:10:02.003Z,1013.42
2017-01-30T07:11:12.541Z,1013.38
2017-01-30T07:12:22.441Z,1013.38
2017-01-30T07:13:32.349Z,1013.31
2017-01-30T07:14:42.669Z,1013.37
2017-01-30T07:15:52.567Z,1013.33
2017-01-30T07:17:03.521Z,1013.41
2017-01-30T07:18:14.197Z,1013.38
2017-01-30T07:19:24.504Z,1013.39
2017-01-30T07:20:35.187Z,1013.39
2017-01-30T07:21:45.492Z,1013.36
2017-01-30T07:22:56.080Z,1013.37
2017-01-30T07:24:05.984Z,1013.35
2017-01-30T07:25:16.665Z,1013.33
2017-01-30T07:26:26.567Z,1013.33
2017-01-30T07:27:37.248Z,1013.35
2017-01-30T07:28:47.837Z,1013.31
2017-01-30T07:29:58.128Z,1013.31
2017-01-30T07:31:08.437Z,1013.3
2017-01-30T07:32:18.725Z,1013.31
2017-01-30T07:33:28.238Z,1013.22
2017-01-30T07:34:38.856Z,1013.2
2017-01-30T07:35:49.561Z,1013.25
2017-01-30T07:36:59.893Z,1013.22
2017-01-30T07:38:09.790Z,1013.25
2017-01-30T07:39:19.700Z,1013.25
2017-01-30T07:40:30.247Z,1013.26
2017-01-30T07:41:40.967Z,1013.22
2017-01-30T07:42:50.497Z,1013.25
2017-01-30T07:44:00.406Z,1013.25
2017-01-30T07:45:10.715Z,1013.25
2017-01-30T07:46:20.872Z,1013.23
2017-01-30T07:47:30.380Z,1013.22
2017-01-30T07:48:40.304Z,1013.19
2017-01-30T07:49:49.803Z,1013.17
2017-01-30T07:51:00.108Z,1013.13
2017-01-30T07:52:10.271Z,1013.1
2017-01-30T07:53:20.165Z,1013.09
2017-01-30T07:54:30.469Z,1013.09
2017-01-30T07:55:40.763Z,1013.02
2017-01-30T07:56:51.061Z,1013.02
2017-01-30T07:58:00.874Z,1012.98
2017-01-30T07:59:11.172Z,1012.94
2017-01-30T08:00:21.454Z,1012.9
2017-01-30T08:01:31.759Z,1012.86
2017-01-30T08:02:40.879Z,1012.89
2017-01-30T08:03:51.456Z,1012.87
2017-01-30T08:05:01.362Z,1012.86
2017-01-30T08:06:12.048Z,1012.87
2017-01-30T08:07:22.342Z,1012.89
2017-01-30T08:08:33.031Z,1012.93
2017-01-30T08:09:43.978Z,1012.91
2017-01-30T08:10:53.905Z,1012.98
2017-01-30T08:12:04.230Z,1012.96
2017-01-30T08:13:14.137Z,1012.87
2017-01-30T08:14:24.418Z,1012.94
2017-01-30T08:15:35.416Z,1012.94
2017-01-30T08:16:45.704Z,1012.96
2017-01-30T08:17:55.614Z,1012.91
2017-01-30T08:19:05.913Z,1012.89
2017-01-30T08:20:16.610Z,1012.88
2017-01-30T08:21:27.157Z,1012.85
2017-01-30T08:22:37.455Z,1012.81
2017-01-30T08:23:47.364Z,1012.8
2017-01-30T08:24:57.702Z,1012.81
2017-01-30T08:26:08.415Z,1012.84
2017-01-30T08:27:18.219Z,1012.84
2017-01-30T08:28:28.915Z,1012.89
2017-01-30T08:29:38.808Z,1012.84
2017-01-30T08:30:47.918Z,1012.82
2017-01-30T08:31:57.810Z,1012.8
2017-01-30T08:33:08.913Z,1012.79
2017-01-30T08:34:18.826Z,1012.82
2017-01-30T08:35:29.150Z,1012.72
2017-01-30T08:36:39.446Z,1012.72
2017-01-30T08:37:49.342Z,1012.71
2017-01-30T08:38:59.523Z,1012.67
2017-01-30T08:40:09.445Z,1012.66
2017-01-30T08:41:19.427Z,1012.68
2017-01-30T08:42:29.352Z,1012.69
2017-01-30T08:43:40.362Z,1012.69
2017-01-30T08:44:50.906Z,1012.62
2017-01-30T08:46:01.211Z,1012.64
2017-01-30T08:47:11.110Z,1012.59
2017-01-30T08:48:21.034Z,1012.61
2017-01-30T08:49:31.730Z,1012.64
2017-01-30T08:50:42.327Z,1012.58
2017-01-30T08:51:53.034Z,1012.62
2017-01-30T08:53:02.936Z,1012.63
2017-01-30T08:54:13.226Z,1012.61
2017-01-30T08:55:22.741Z,1012.6
2017-01-30T08:56:32.910Z,1012.59
2017-01-30T08:57:43.198Z,1012.61
2017-01-30T08:58:53.501Z,1012.62
2017-01-30T09:00:03.412Z,1012.64
2017-01-30T09:01:13.716Z,1012.65
2017-01-30T09:02:24.269Z,1012.59
2017-01-30T09:03:34.573Z,1012.55
2017-01-30T09:04:44.515Z,1012.56
2017-01-30T09:05:54.810Z,1012.55
2017-01-30T09:07:05.123Z,1012.51
2017-01-30T09:08:15.725Z,1012.53
2017-01-30T09:09:26.033Z,1012.51
2017-01-30T09:10:35.945Z,1012.51
2017-01-30T09:11:45.871Z,1012.46
2017-01-30T09:12:55.780Z,1012.44
2017-01-30T09:14:05.955Z,1012.43
2017-01-30T09:15:16.269Z,1012.41
2017-01-30T09:16:26.585Z,1012.44
2017-01-30T09:17:36.889Z,1012.42
2017-01-30T09:18:47.587Z,1012.38
2017-01-30T09:19:58.202Z,1012.37
2017-01-30T09:21:07.311Z,1012.31
2017-01-30T09:22:16.829Z,1012.3
2017-01-30T09:23:27.134Z,1012.32
2017-01-30T09:24:37.830Z,1012.3
2017-01-30T09:25:47.641Z,1012.32
2017-01-30T09:26:58.341Z,1012.31
2017-01-30T09:28:08.633Z,1012.27
2017-01-30T09:29:18.539Z,1012.29
2017-01-30T09:30:28.839Z,1012.28
2017-01-30T09:31:39.443Z,1012.28
2017-01-30T09:32:50.130Z,1012.29
2017-01-30T09:34:00.831Z,1012.24
2017-01-30T09:35:09.948Z,1012.21
2017-01-30T09:36:20.651Z,1012.18
2017-01-30T09:37:30.853Z,1012.17
2017-01-30T09:38:41.188Z,1012.11
2017-01-30T09:39:51.502Z,1012.11
2017-01-30T09:41:01.054Z,1012.08
2017-01-30T09:42:11.347Z,1012.06
2017-01-30T09:43:21.502Z,1012.02
2017-01-30T09:44:31.806Z,1011.94
2017-01-30T09:45:41.325Z,1011.99
2017-01-30T09:46:51.622Z,1011.98
2017-01-30T09:48:01.542Z,1011.98
2017-01-30T09:49:11.700Z,1011.92
2017-01-30T09:50:22.004Z,1011.94
2017-01-30T09:51:32.316Z,1011.96
2017-01-30T09:52:42.228Z,1011.97
2017-01-30T09:53:52.543Z,1011.95
2017-01-30T09:55:03.177Z,1011.86
2017-01-30T09:56:13.085Z,1011.87
2017-01-30T09:57:23.377Z,1011.84
2017-01-30T09:58:34.083Z,1011.81
2017-01-30T09:59:44.377Z,1011.74
2017-01-30T10:00:55.408Z,1011.73
2017-01-30T10:02:05.316Z,1011.69
2017-01-30T10:03:15.228Z,1011.64
2017-01-30T10:04:25.920Z,1011.6
2017-01-30T10:05:36.221Z,1011.61
2017-01-30T10:06:46.619Z,1011.58
2017-01-30T10:07:55.747Z,1011.61
2017-01-30T10:09:06.061Z,1011.58
2017-01-30T10:10:16.380Z,1011.55
2017-01-30T10:11:26.672Z,1011.59
2017-01-30T10:12:36.143Z,1011.51
2017-01-30T10:13:46.063Z,1011.5
2017-01-30T10:14:56.010Z,1011.51
2017-01-30T10:16:06.306Z,1011.47
2017-01-30T10:17:16.614Z,1011.48
2017-01-30T10:18:27.211Z,1011.46
2017-01-30T10:19:37.128Z,1011.44
2017-01-30T10:20:47.040Z,1011.41
2017-01-30T10:21:56.951Z,1011.44
2017-01-30T10:23:06.868Z,1011.4
2017-01-30T10:24:16.681Z,1011.4
2017-01-30T10:25:27.413Z,1011.42
2017-01-30T10:26:38.123Z,1011.39
2017-01-30T10:27:48.415Z,1011.34
2017-01-30T10:28:58.743Z,1011.33
2017-01-30T10:30:09.690Z,1011.25
2017-01-30T10:31:19.994Z,1011.24
2017-01-30T10:32:29.505Z,1011.21
2017-01-30T10:33:39.006Z,1011.15
2017-01-30T10:34:48.922Z,1011.17
2017-01-30T10:35:59.469Z,1011.14
2017-01-30T10:37:08.605Z,1011.14
2017-01-30T10:38:18.317Z,1011.13
2017-01-30T10:39:27.827Z,1011.13
2017-01-30T10:40:38.122Z,1011.09
2017-01-30T10:41:47.940Z,1011.07
2017-01-30T10:42:57.854Z,1011.07
2017-01-30T10:44:07.764Z,1011.05
2017-01-30T10:45:18.074Z,1011.04
2017-01-30T10:46:28.761Z,1011.02
2017-01-30T10:47:38.580Z,1011.03
2017-01-30T10:48:48.876Z,1010.99
2017-01-30T10:49:59.160Z,1010.95
2017-01-30T10:51:09.083Z,1010.98
2017-01-30T10:52:19.381Z,1011.02
2017-01-30T10:53:29.529Z,1010.99
2017-01-30T10:54:39.816Z,1010.96
2017-01-30T10:55:50.507Z,1010.96
2017-01-30T10:57:00.819Z,1010.95
2017-01-30T10:58:10.725Z,1010.95
2017-01-30T10:59:21.322Z,1010.98
2017-01-30T11:00:31.616Z,1010.96
2017-01-30T11:01:41.539Z,1010.96
2017-01-30T11:02:52.229Z,1010.98
2017-01-30T11:04:02.549Z,1011.03
2017-01-30T11:05:13.521Z,1011.03
2017-01-30T11:06:23.420Z,1011.02
2017-01-30T11:07:33.321Z,1011.03
2017-01-30T11:08:44.014Z,1011.01
2017-01-30T11:09:53.532Z,1010.97
2017-01-30T11:11:04.532Z,1011.02
2017-01-30T11:12:14.830Z,1011.01
2017-01-30T11:13:25.131Z,1010.96
2017-01-30T11:14:35.024Z,1010.98
2017-01-30T11:15:44.541Z,1010.98
2017-01-30T11:16:55.087Z,1010.96
2017-01-30T11:18:05.389Z,1010.92
2017-01-30T11:19:15.684Z,1010.92
2017-01-30T11:20:25.600Z,1010.9
2017-01-30T11:21:36.285Z,1010.88
2017-01-30T11:22:46.096Z,1010.87
2017-01-30T11:23:56.004Z,1010.8
2017-01-30T11:25:06.304Z,1010.8
2017-01-30T11:26:17.000Z,1010.8
2017-01-30T11:27:26.896Z,1010.77
2017-01-30T11:28:37.105Z,1010.75
2017-01-30T11:29:47.859Z,1010.73
2017-01-30T11:30:58.159Z,1010.67
2017-01-30T11:32:08.466Z,1010.69
2017-01-30T11:33:18.378Z,1010.67
2017-01-30T11:34:28.989Z,1010.67
2017-01-30T11:35:39.311Z,1010.61
2017-01-30T11:36:50.020Z,1010.62
2017-01-30T11:37:59.943Z,1010.57
2017-01-30T11:39:09.461Z,1010.56
2017-01-30T11:40:19.659Z,1010.51
2017-01-30T11:41:30.363Z,1010.51
2017-01-30T11:42:40.291Z,1010.49
2017-01-30T11:43:50.589Z,1010.48
2017-01-30T11:45:00.494Z,1010.46
2017-01-30T11:46:11.093Z,1010.46
2017-01-30T11:47:20.997Z,1010.42
2017-01-30T11:48:31.326Z,1010.4
2017-01-30T11:49:41.642Z,1010.43
2017-01-30T11:50:51.939Z,1010.35
2017-01-30T11:52:02.890Z,1010.26
2017-01-30T11:53:13.217Z,1010.26
2017-01-30T11:54:23.126Z,1010.25
2017-01-30T11:55:33.224Z,1010.26
2017-01-30T11:56:43.134Z,1010.17
2017-01-30T11:57:53.351Z,1010.18
2017-01-30T11:59:04.039Z,1010.17
2017-01-30T12:00:14.332Z,1010.15
2017-01-30T12:01:25.067Z,1010.21
2017-01-30T12:02:34.580Z,1010.22
2017-01-30T12:03:45.233Z,1010.23
2017-01-30T12:04:55.149Z,1010.23
2017-01-30T12:06:04.667Z,1010.12
2017-01-30T12:07:14.990Z,1010.14
2017-01-30T12:08:24.510Z,1010.11
2017-01-30T12:09:35.467Z,1010.11
2017-01-30T12:10:45.770Z,1010.05
2017-01-30T12:11:56.472Z,1010.07
2017-01-30T12:13:07.178Z,1010.02
2017-01-30T12:14:17.090Z,1010.09
2017-01-30T12:15:27.249Z,1010.07
2017-01-30T12:16:37.348Z,1010.09
2017-01-30T12:17:46.855Z,1010.05
2017-01-30T12:18:56.368Z,1010.08
2017-01-30T12:20:06.674Z,1010.04
2017-01-30T12:21:17.273Z,1010.04
2017-01-30T12:22:27.177Z,1010.01
2017-01-30T12:23:37.470Z,1009.92
2017-01-30T12:24:48.168Z,1009.88
2017-01-30T12:25:58.871Z,1009.89
2017-01-30T12:27:09.032Z,1009.84
2017-01-30T12:28:19.716Z,1009.8
2017-01-30T12:29:30.002Z,1009.78
2017-01-30T12:30:39.925Z,1009.78
2017-01-30T12:31:50.219Z,1009.75
2017-01-30T12:33:00.814Z,1009.76
2017-01-30T12:34:10.718Z,1009.72
2017-01-30T12:35:20.630Z,1009.71
2017-01-30T12:36:30.553Z,1009.74
2017-01-30T12:37:40.859Z,1009.67
2017-01-30T12:38:51.033Z,1009.67
2017-01-30T12:40:00.196Z,1009.63
2017-01-30T12:41:09.708Z,1009.59
2017-01-30T12:42:19.220Z,1009.59
2017-01-30T12:43:29.519Z,1009.55
2017-01-30T12:44:39.683Z,1009.55
2017-01-30T12:45:50.354Z,1009.54
2017-01-30T12:47:01.049Z,1009.56
2017-01-30T12:48:11.373Z,1009.52
2017-01-30T12:49:20.879Z,1009.49
2017-01-30T12:50:31.479Z,1009.5
2017-01-30T12:51:41.379Z,1009.44
2017-01-30T12:52:51.273Z,1009.49
2017-01-30T12:54:01.575Z,1009.47
2017-01-30T12:55:11.863Z,1009.49
2017-01-30T12:56:22.457Z,1009.43
2017-01-30T12:57:33.161Z,1009.4
2017-01-30T12:58:43.460Z,1009.43
2017-01-30T12:59:53.814Z,1009.43
2017-01-30T13:01:04.519Z,1009.38
2017-01-30T13:02:14.331Z,1009.4
2017-01-30T13:03:24.633Z,1009.35
2017-01-30T13:04:34.926Z,1009.34
2017-01-30T13:05:44.818Z,1009.31
2017-01-30T13:06:55.509Z,1009.31
2017-01-30T13:08:06.068Z,1009.27
2017-01-30T13:09:16.375Z,1009.25
2017-01-30T13:10:26.681Z,1009.24
2017-01-30T13:11:36.586Z,1009.2
2017-01-30T13:12:46.877Z,1009.2
2017-01-30T13:13:57.091Z,1009.21
2017-01-30T13:15:06.983Z,1009.23
2017-01-30T13:16:17.699Z,1009.16
2017-01-30T13:17:28.383Z,1009.13
2017-01-30T13:18:38.681Z,1009.03
2017-01-30T13:19:48.902Z,1009.03
2017-01-30T13:20:59.210Z,1009.06
2017-01-30T13:22:08.322Z,1009
2017-01-30T13:23:18.235Z,1008.97
2017-01-30T13:24:28.528Z,1008.95
2017-01-30T13:25:38.295Z,1008.95
2017-01-30T13:26:48.595Z,1008.93
2017-01-30T13:27:59.299Z,1008.94
2017-01-30T13:29:09.203Z,1008.93
2017-01-30T13:30:18.709Z,1008.85
2017-01-30T13:31:28.487Z,1008.89
2017-01-30T13:32:38.393Z,1008.84
2017-01-30T13:33:48.320Z,1008.81
2017-01-30T13:34:58.620Z,1008.83
2017-01-30T13:36:08.528Z,1008.83
2017-01-30T13:37:19.078Z,1008.81
2017-01-30T13:38:29.401Z,1008.85
2017-01-30T13:39:39.706Z,1008.82
2017-01-30T13:40:50.021Z,1008.85
2017-01-30T13:41:59.917Z,1008.82
2017-01-30T13:43:09.285Z,1008.86
2017-01-30T13:44:18.807Z,1008.88
2017-01-30T13:45:28.718Z,1008.85
2017-01-30T13:46:38.227Z,1008.86
2017-01-30T13:47:48.526Z,1008.86
2017-01-30T13:48:59.164Z,1008.84
2017-01-30T13:50:09.076Z,1008.79
2017-01-30T13:51:19.383Z,1008.77
2017-01-30T13:52:30.078Z,1008.77
2017-01-30T13:53:40.379Z,1008.74
2017-01-30T13:54:50.189Z,1008.72
2017-01-30T13:56:00.090Z,1008.7
2017-01-30T13:57:09.596Z,1008.71
2017-01-30T13:58:19.904Z,1008.7
2017-01-30T13:59:30.616Z,1008.65
2017-01-30T14:00:41.547Z,1008.61
2017-01-30T14:01:51.835Z,1008.62
2017-01-30T14:03:01.356Z,1008.59
2017-01-30T14:04:10.976Z,1008.61
2017-01-30T14:05:20.874Z,1008.62
2017-01-30T14:06:31.091Z,1008.61
2017-01-30T14:07:41.792Z,1008.57
2017-01-30T14:08:52.091Z,1008.54
2017-01-30T14:10:02.400Z,1008.51
2017-01-30T14:11:11.925Z,1008.51
2017-01-30T14:12:21.729Z,1008.43